createdAt,value
2023-02-06T00:01:48.632Z,-23681.21
2023-02-06T00:08:15.383Z,-23680.96
2023-02-06T00:10:44.460Z,-23680.11
2023-02-06T00:13:13.448Z,-23679.89
2023-02-06T00:15:41.954Z,-23679.57
2023-02-06T00:18:10.367Z,-23679.41
2023-02-06T00:20:39.591Z,-23679.32
2023-02-06T00:23:08.516Z,-23678.69
2023-02-06T00:25:36.991Z,-23678.28
2023-02-06T00:28:05.645Z,-23677.99
2023-02-06T00:30:34.670Z,-23678.11
2023-02-06T00:33:03.049Z,-23677.96
2023-02-06T00:35:31.141Z,-23678.18
2023-02-06T00:38:00.315Z,-23678.53
2023-02-06T00:40:29.483Z,-23678.78
2023-02-06T00:42:58.126Z,-23678.84
2023-02-06T00:45:26.214Z,-23678.94
2023-02-06T00:47:55.118Z,-23678.34
2023-02-06T00:50:23.340Z,-23677.86
2023-02-06T00:52:51.542Z,-23677.67
2023-02-06T00:55:19.617Z,-23677.80
2023-02-06T00:57:47.662Z,-23677.74
2023-02-06T01:00:16.087Z,-23677.80
2023-02-06T01:02:44.536Z,-23677.71
2023-02-06T01:05:12.823Z,-23677.64
2023-02-06T01:07:42.656Z,-23677.52
2023-02-06T01:10:11.013Z,-23677.33
2023-02-06T01:12:41.043Z,-23677.80
2023-02-06T01:15:10.665Z,-23678.02
2023-02-06T01:17:39.487Z,-23678.24
2023-02-06T01:20:09.871Z,-23678.47
2023-02-06T01:22:38.341Z,-23678.72
2023-02-06T01:25:06.929Z,-23678.94
2023-02-06T01:27:37.003Z,-23679.48
2023-02-06T01:30:06.509Z,-23679.60
2023-02-06T01:32:38.343Z,-23679.95
2023-02-06T01:35:07.354Z,-23680.58
2023-02-06T01:37:38.293Z,-23680.36
2023-02-06T01:40:13.085Z,-23680.11
2023-02-06T01:42:42.354Z,-23679.85
2023-02-06T01:45:25.922Z,-23679.25
2023-02-06T01:48:03.485Z,-23679.06
2023-02-06T01:50:31.958Z,-23678.75
2023-02-06T01:53:00.191Z,-23678.56
2023-02-06T01:55:28.397Z,-23678.15
2023-02-06T01:57:56.488Z,-23677.93
2023-02-06T02:00:24.653Z,-23678.02
2023-02-06T02:02:52.833Z,-23677.33
2023-02-06T02:05:22.910Z,-23676.70
2023-02-06T02:08:01.167Z,-23676.76
2023-02-06T02:10:30.248Z,-23676.50
2023-02-06T02:13:00.832Z,-23676.22
2023-02-06T02:15:40.177Z,-23676.25
2023-02-06T02:18:16.754Z,-23675.88
2023-02-06T02:20:56.059Z,-23675.81
2023-02-06T02:24:02.705Z,-23675.65
2023-02-06T02:26:40.056Z,-23675.46
2023-02-06T02:29:29.380Z,-23675.71
2023-02-06T02:32:04.048Z,-23675.59
2023-02-06T02:35:00.039Z,-23675.15
2023-02-06T02:37:40.832Z,-23674.86
2023-02-06T02:40:40.087Z,-23674.42
2023-02-06T02:43:30.122Z,-23674.10
2023-02-06T02:46:17.674Z,-23673.60
2023-02-06T02:48:47.088Z,-23673.47
2023-02-06T02:51:15.359Z,-23673.51
2023-02-06T02:53:43.574Z,-23673.29
2023-02-06T02:56:21.427Z,-23673.09
2023-02-06T02:58:55.618Z,-23673.03
2023-02-06T03:01:28.150Z,-23672.90
2023-02-06T03:03:56.565Z,-23672.87
2023-02-06T03:06:30.222Z,-23672.59
2023-02-06T03:09:26.510Z,-23671.57
2023-02-06T03:12:10.663Z,-23671.16
2023-02-06T03:14:46.463Z,-23670.94
2023-02-06T03:17:16.656Z,-23670.79
2023-02-06T03:19:48.637Z,-23670.66
2023-02-06T03:22:16.783Z,-23670.50
2023-02-06T03:24:44.829Z,-23670.38
2023-02-06T03:27:14.986Z,-23670.76
2023-02-06T03:29:43.532Z,-23671.01
2023-02-06T03:32:17.572Z,-23671.07
2023-02-06T03:35:05.804Z,-23670.66
2023-02-06T03:37:34.563Z,-23670.47
2023-02-06T03:40:22.568Z,-23670.44
2023-02-06T03:42:53.035Z,-23671.01
2023-02-06T03:45:36.495Z,-23671.45
2023-02-06T03:48:09.238Z,-23671.61
2023-02-06T03:50:38.228Z,-23671.64
2023-02-06T03:53:07.329Z,-23671.67
2023-02-06T03:55:36.397Z,-23671.96
2023-02-06T03:58:09.335Z,-23672.08
2023-02-06T04:00:37.519Z,-23672.71
2023-02-06T04:03:05.662Z,-23672.71
2023-02-06T04:05:34.309Z,-23672.37
2023-02-06T04:08:02.851Z,-23672.30
2023-02-06T04:10:32.334Z,-23671.96
2023-02-06T04:13:01.622Z,-23671.52
2023-02-06T04:15:30.217Z,-23671.32
2023-02-06T04:18:00.940Z,-23671.55
2023-02-06T04:20:29.941Z,-23671.20
2023-02-06T04:22:58.932Z,-23671.23
2023-02-06T04:25:27.138Z,-23671.55
2023-02-06T04:27:56.134Z,-23671.70
2023-02-06T04:30:24.362Z,-23671.20
2023-02-06T04:32:53.159Z,-23670.72
2023-02-06T04:35:21.301Z,-23670.57
2023-02-06T04:37:49.736Z,-23670.63
2023-02-06T04:40:18.192Z,-23670.75
2023-02-06T04:42:47.236Z,-23670.03
2023-02-06T04:45:15.554Z,-23669.80
2023-02-06T04:47:43.716Z,-23669.61
2023-02-06T04:50:12.541Z,-23669.64
2023-02-06T04:52:40.806Z,-23670.06
2023-02-06T04:55:09.213Z,-23670.06
2023-02-06T04:57:38.057Z,-23670.19
2023-02-06T05:00:06.979Z,-23670.12
2023-02-06T05:02:39.781Z,-23669.71
2023-02-06T05:05:08.783Z,-23669.02
2023-02-06T05:07:38.576Z,-23668.70
2023-02-06T05:10:09.073Z,-23668.67
2023-02-06T05:12:39.471Z,-23668.76
2023-02-06T05:15:08.170Z,-23669.11
2023-02-06T05:17:36.566Z,-23669.24
2023-02-06T05:20:05.623Z,-23669.05
2023-02-06T05:22:33.904Z,-23669.14
2023-02-06T05:25:02.045Z,-23669.27
2023-02-06T05:27:30.493Z,-23668.89
2023-02-06T05:29:58.618Z,-23668.47
2023-02-06T05:32:26.708Z,-23667.28
2023-02-06T05:34:54.970Z,-23666.27
2023-02-06T05:37:23.099Z,-23665.64
2023-02-06T05:39:51.306Z,-23665.13
2023-02-06T05:42:19.545Z,-23664.78
2023-02-06T05:44:47.709Z,-23664.81
2023-02-06T05:47:15.837Z,-23663.96
2023-02-06T05:49:44.291Z,-23663.17
2023-02-06T05:52:12.402Z,-23662.85
2023-02-06T05:54:41.139Z,-23662.82
2023-02-06T05:57:09.431Z,-23662.82
2023-02-06T05:59:37.691Z,-23662.66
2023-02-06T06:02:06.132Z,-23662.79
2023-02-06T06:04:34.505Z,-23663.04
2023-02-06T06:07:02.663Z,-23663.11
2023-02-06T06:09:31.118Z,-23663.04
2023-02-06T06:12:02.056Z,-23663.17
2023-02-06T06:14:31.341Z,-23663.26
2023-02-06T06:17:00.366Z,-23662.98
2023-02-06T06:19:28.551Z,-23663.07
2023-02-06T06:21:58.236Z,-23663.52
2023-02-06T06:24:26.712Z,-23663.80
2023-02-06T06:26:56.512Z,-23664.12
2023-02-06T06:29:25.404Z,-23664.34
2023-02-06T06:31:53.789Z,-23664.31
2023-02-06T06:34:22.494Z,-23664.75
2023-02-06T06:36:50.874Z,-23665.26
2023-02-06T10:37:52.001Z,-23698.11
2023-02-06T10:40:26.215Z,-23694.36
2023-02-06T10:43:19.242Z,-23693.28
2023-02-06T10:46:05.908Z,-23693.44
2023-02-06T10:48:44.589Z,-23694.99
2023-02-06T10:51:22.529Z,-23695.05
2023-02-06T10:53:56.489Z,-23695.33
2023-02-06T10:56:49.684Z,-23696.35
2023-02-06T10:59:22.432Z,-23696.31
2023-02-06T11:02:05.889Z,-23696.82
2023-02-06T11:04:39.671Z,-23696.06
2023-02-06T11:07:12.842Z,-23695.24
2023-02-06T11:09:41.285Z,-23694.64
2023-02-06T11:12:24.479Z,-23693.31
2023-02-06T11:14:52.762Z,-23692.02
2023-02-06T11:17:22.727Z,-23690.85
2023-02-06T11:19:51.990Z,-23690.63
2023-02-06T11:22:28.668Z,-23689.87
2023-02-06T11:25:08.084Z,-23689.71
2023-02-06T11:27:36.563Z,-23689.20
2023-02-06T11:30:29.645Z,-23688.73
2023-02-06T11:33:04.699Z,-23688.73
2023-02-06T11:35:36.633Z,-23689.20
2023-02-06T11:38:17.326Z,-23690.00
2023-02-06T11:41:00.859Z,-23689.97
2023-02-06T11:43:33.955Z,-23688.48
2023-02-06T11:46:08.449Z,-23687.69
2023-02-06T11:48:37.788Z,-23688.67
2023-02-06T11:51:06.497Z,-23690.25
2023-02-06T11:53:35.565Z,-23690.31
2023-02-06T11:56:17.945Z,-23690.19
2023-02-06T11:58:47.774Z,-23690.54
2023-02-06T12:01:20.598Z,-23690.31
2023-02-06T12:03:55.315Z,-23691.35
2023-02-06T12:06:36.205Z,-23690.85
2023-02-06T12:09:09.780Z,-23689.71
2023-02-06T12:12:08.372Z,-23689.43
2023-02-06T12:14:40.684Z,-23689.62
2023-02-06T12:17:32.095Z,-23690.60
2023-02-06T12:20:06.463Z,-23692.62
2023-02-06T12:22:39.436Z,-23694.57
2023-02-06T12:25:25.450Z,-23696.03
2023-02-06T12:27:57.136Z,-23697.61
2023-02-06T12:30:48.257Z,-23698.43
2023-02-06T12:33:40.972Z,-23698.11
2023-02-06T12:36:17.571Z,-23698.02
2023-02-06T12:38:57.190Z,-23697.86
2023-02-06T12:41:47.492Z,-23698.62
2023-02-06T12:44:42.280Z,-23698.78
2023-02-06T12:47:25.692Z,-23698.68
2023-02-06T12:50:04.151Z,-23699.69
2023-02-06T12:52:45.821Z,-23701.30
2023-02-06T12:55:28.637Z,-23703.10
2023-02-06T12:57:58.185Z,-23703.89
2023-02-06T13:00:55.274Z,-23701.46
2023-02-06T13:03:43.941Z,-23698.56
2023-02-06T13:06:22.280Z,-23696.47
2023-02-06T13:08:57.634Z,-23694.57
2023-02-06T13:11:35.146Z,-23694.89
2023-02-06T13:14:18.369Z,-23694.89
2023-02-06T13:17:11.920Z,-23694.96
2023-02-06T13:19:40.709Z,-23695.87
2023-02-06T13:22:10.943Z,-23695.43
2023-02-06T13:24:46.427Z,-23694.39
2023-02-06T13:27:24.958Z,-23692.33
2023-02-06T13:29:54.236Z,-23691.04
2023-02-06T13:32:22.862Z,-23690.12
2023-02-06T13:34:53.935Z,-23688.95
2023-02-06T13:37:35.150Z,-23688.86
2023-02-06T13:40:26.730Z,-23688.83
2023-02-06T13:43:14.015Z,-23688.00
2023-02-06T13:45:49.433Z,-23687.53
2023-02-06T13:48:41.137Z,-23686.90
2023-02-06T13:51:17.046Z,-23686.75
2023-02-06T13:54:24.516Z,-23685.92
2023-02-06T13:57:23.293Z,-23683.71
2023-02-06T13:59:58.615Z,-23682.82
2023-02-06T14:02:34.147Z,-23681.34
2023-02-06T14:05:04.249Z,-23680.93
2023-02-06T14:07:32.416Z,-23680.90
2023-02-06T14:10:24.030Z,-23680.36
2023-02-06T14:13:28.705Z,-23680.49
2023-02-06T14:16:15.803Z,-23679.70
2023-02-06T14:18:49.633Z,-23678.75
2023-02-06T14:21:39.356Z,-23678.28
2023-02-06T14:24:31.769Z,-23677.30
2023-02-06T14:27:03.375Z,-23676.29
2023-02-06T14:30:09.076Z,-23675.84
2023-02-06T14:32:47.859Z,-23675.75
2023-02-06T14:35:20.644Z,-23675.43
2023-02-06T14:38:10.037Z,-23674.52
2023-02-06T14:40:42.671Z,-23673.25
2023-02-06T14:43:15.147Z,-23672.49
2023-02-06T14:46:04.169Z,-23671.93
2023-02-06T14:48:52.401Z,-23671.89
2023-02-06T14:51:26.842Z,-23671.29
2023-02-06T14:53:57.690Z,-23670.09
2023-02-06T14:56:36.835Z,-23669.27
2023-02-06T14:59:23.585Z,-23668.60
2023-02-06T15:01:53.465Z,-23668.32
2023-02-06T15:04:23.048Z,-23668.10
2023-02-06T15:06:53.450Z,-23667.47
2023-02-06T15:09:27.598Z,-23667.25
2023-02-06T15:12:26.826Z,-23666.93
2023-02-06T15:15:05.444Z,-23666.64
2023-02-06T15:17:34.601Z,-23666.74
2023-02-06T15:20:24.281Z,-23666.87
2023-02-06T15:22:54.289Z,-23666.80
2023-02-06T15:25:32.469Z,-23666.33
2023-02-06T15:28:07.810Z,-23666.14
2023-02-06T15:30:37.632Z,-23665.73
2023-02-06T15:33:09.201Z,-23665.73
2023-02-06T15:35:41.235Z,-23665.45
2023-02-06T15:38:13.845Z,-23664.46
2023-02-06T15:40:46.435Z,-23663.77
2023-02-06T15:43:24.667Z,-23663.58
2023-02-06T15:45:57.669Z,-23663.17
2023-02-06T15:48:28.984Z,-23662.63
2023-02-06T15:50:59.650Z,-23661.68
2023-02-06T15:53:48.332Z,-23660.52
2023-02-06T15:56:21.093Z,-23660.11
2023-02-06T15:58:50.050Z,-23660.26
2023-02-06T16:01:19.781Z,-23660.04
2023-02-06T16:03:53.390Z,-23660.23
2023-02-06T16:06:22.367Z,-23660.17
2023-02-06T16:08:54.593Z,-23659.63
2023-02-06T19:30:19.443Z,-23632.49
2023-02-06T19:32:48.831Z,-23631.92
2023-02-06T19:35:17.416Z,-23630.28
2023-02-06T19:37:45.687Z,-23629.07
2023-02-06T19:40:14.199Z,-23627.74
2023-02-06T19:42:42.745Z,-23626.45
2023-02-06T19:45:11.241Z,-23625.34
2023-02-06T19:47:41.052Z,-23624.55
2023-02-06T19:50:10.829Z,-23623.63
2023-02-06T19:52:40.529Z,-23623.28
2023-02-06T19:55:08.929Z,-23622.81
2023-02-06T19:57:39.599Z,-23621.73
2023-02-06T20:00:08.574Z,-23620.50
2023-02-06T20:02:39.191Z,-23619.96
2023-02-06T20:05:07.942Z,-23619.29
2023-02-06T20:07:36.381Z,-23618.57
2023-02-06T20:10:05.447Z,-23617.55
2023-02-06T20:12:36.274Z,-23616.29
2023-02-06T20:15:04.651Z,-23615.12
2023-02-06T20:17:32.952Z,-23613.85
2023-02-06T20:20:01.534Z,-23613.53
2023-02-06T20:22:30.189Z,-23613.50
2023-02-06T20:24:59.066Z,-23613.28
2023-02-06T20:27:27.717Z,-23613.34
2023-02-06T20:29:56.148Z,-23613.34
2023-02-06T20:32:24.574Z,-23613.53
2023-02-06T20:34:52.873Z,-23613.79
2023-02-06T20:37:21.581Z,-23613.79
2023-02-06T20:39:49.888Z,-23613.38
2023-02-06T20:42:19.620Z,-23612.96
2023-02-06T20:44:49.508Z,-23612.07
2023-02-06T20:47:17.947Z,-23611.41
2023-02-06T20:49:46.803Z,-23610.94
2023-02-06T20:52:15.089Z,-23610.34
2023-02-06T20:54:43.830Z,-23609.83
2023-02-06T20:57:12.196Z,-23609.55
2023-02-06T20:59:40.643Z,-23609.29
2023-02-06T21:02:10.719Z,-23609.48
2023-02-06T21:04:39.386Z,-23609.07
2023-02-06T21:07:07.703Z,-23609.17
2023-02-06T21:09:36.624Z,-23609.29
2023-02-06T21:12:05.185Z,-23609.17
2023-02-06T21:14:35.332Z,-23609.10
2023-02-06T21:17:03.549Z,-23609.29
2023-02-06T21:19:31.767Z,-23609.29
2023-02-06T21:22:00.907Z,-23609.45
2023-02-06T21:24:29.597Z,-23610.15
2023-02-06T21:26:57.852Z,-23610.91
2023-02-06T21:29:26.233Z,-23611.38
2023-02-06T21:32:07.449Z,-23611.95
2023-02-06T21:34:41.190Z,-23612.46
2023-02-06T21:37:09.667Z,-23612.81
2023-02-06T21:39:38.983Z,-23613.09
2023-02-06T21:42:10.770Z,-23613.28
2023-02-06T21:44:39.520Z,-23613.66
2023-02-06T21:47:10.044Z,-23614.01
2023-02-06T21:49:40.418Z,-23613.60
2023-02-06T21:52:08.852Z,-23613.50
2023-02-06T21:54:38.089Z,-23613.75
2023-02-06T21:57:06.509Z,-23613.88
2023-02-06T21:59:36.650Z,-23614.45
2023-02-06T22:02:05.223Z,-23614.73
2023-02-06T22:04:33.645Z,-23615.21
2023-02-06T22:07:02.211Z,-23615.63
2023-02-06T22:09:30.588Z,-23615.50
2023-02-06T22:11:58.845Z,-23614.74
2023-02-06T22:14:28.992Z,-23613.69
2023-02-06T22:17:00.769Z,-23612.87
2023-02-06T22:19:29.461Z,-23612.62
2023-02-06T22:22:00.954Z,-23612.84
2023-02-06T22:24:29.976Z,-23613.12
2023-02-06T22:26:58.166Z,-23613.50
2023-02-06T22:29:26.345Z,-23613.53
2023-02-06T22:31:54.799Z,-23614.04
2023-02-06T22:34:23.081Z,-23614.77
2023-02-06T22:36:54.390Z,-23614.99
2023-02-06T22:39:22.736Z,-23614.64
2023-02-06T22:41:51.294Z,-23613.91
2023-02-06T22:44:20.336Z,-23612.87
2023-02-06T22:46:52.440Z,-23611.66
2023-02-06T22:49:21.713Z,-23611.13
2023-02-06T22:51:50.440Z,-23611.16
2023-02-06T22:54:18.965Z,-23610.91
2023-02-06T22:56:47.084Z,-23611.03
2023-02-06T22:59:17.562Z,-23611.06
2023-02-06T23:01:55.382Z,-23611.25
2023-02-06T23:04:28.819Z,-23610.78
2023-02-06T23:06:57.886Z,-23610.14
2023-02-06T23:09:28.389Z,-23609.42
2023-02-06T23:12:01.361Z,-23609.07
2023-02-06T23:14:31.768Z,-23609.45
2023-02-06T23:17:00.385Z,-23609.32
2023-02-06T23:19:29.303Z,-23609.48
2023-02-06T23:21:57.649Z,-23609.70
2023-02-06T23:24:25.881Z,-23609.67
2023-02-06T23:26:54.544Z,-23609.32
2023-02-06T23:29:23.506Z,-23608.66
2023-02-06T23:31:51.856Z,-23608.43
2023-02-06T23:34:23.739Z,-23608.88
2023-02-06T23:36:56.085Z,-23609.26
2023-02-06T23:39:24.498Z,-23609.39
2023-02-06T23:41:53.176Z,-23609.92
2023-02-06T23:44:21.390Z,-23610.21
2023-02-06T23:46:49.589Z,-23610.65
2023-02-06T23:49:18.781Z,-23610.84
2023-02-06T23:51:47.360Z,-23610.88
2023-02-06T23:54:15.705Z,-23611.06
2023-02-06T23:56:46.452Z,-23611.06
2023-02-06T23:59:14.736Z,-23610.97
